createdAt,value
2023-04-24T00:01:54.223Z,11.94
2023-04-24T00:04:45.816Z,12.08
2023-04-24T00:07:34.498Z,12.10
2023-04-24T00:10:23.121Z,12.04
2023-04-24T00:13:11.540Z,12.18
2023-04-24T00:15:59.900Z,12.03
2023-04-24T00:18:49.893Z,12.10
2023-04-24T00:21:38.636Z,12.19
2023-04-24T00:24:27.128Z,12.12
2023-04-24T00:27:15.495Z,12.07
2023-04-24T00:30:04.425Z,12.19
2023-04-24T00:32:52.980Z,12.13
2023-04-24T00:35:42.720Z,12.30
2023-04-24T00:38:32.868Z,12.27
2023-04-24T00:41:21.996Z,12.41
2023-04-24T00:44:10.407Z,12.51
2023-04-24T00:46:59.031Z,12.49
2023-04-24T00:49:47.450Z,12.46
2023-04-24T00:52:38.151Z,12.42
2023-04-24T00:55:27.035Z,12.46
2023-04-24T00:58:15.799Z,12.53
2023-04-24T01:01:08.132Z,12.59
2023-04-24T01:03:57.717Z,12.47
2023-04-24T01:06:46.657Z,12.49
2023-04-24T01:09:37.810Z,12.46
2023-04-24T01:12:26.217Z,12.26
2023-04-24T01:15:14.687Z,12.27
2023-04-24T01:18:05.082Z,12.27
2023-04-24T01:20:56.009Z,12.26
2023-04-24T01:23:47.544Z,12.14
2023-04-24T01:26:36.070Z,12.18
2023-04-24T01:29:24.943Z,12.20
2023-04-24T01:32:13.484Z,12.09
2023-04-24T01:35:02.530Z,12.10
2023-04-24T01:37:51.443Z,11.97
2023-04-24T01:40:41.576Z,11.95
2023-04-24T01:43:30.124Z,11.94
2023-04-24T01:46:20.339Z,11.96
2023-04-24T01:49:08.772Z,12.00
2023-04-24T01:51:57.260Z,11.92
2023-04-24T01:54:45.723Z,11.90
2023-04-24T01:57:36.002Z,11.95
2023-04-24T02:00:25.173Z,11.97
2023-04-24T02:03:15.247Z,11.95
2023-04-24T02:06:03.854Z,12.04
2023-04-24T02:08:53.465Z,11.99
2023-04-24T02:11:41.887Z,12.07
2023-04-24T02:14:31.642Z,12.11
2023-04-24T02:17:20.302Z,12.12
2023-04-24T02:20:09.803Z,11.98
2023-04-24T02:23:00.483Z,12.08
2023-04-24T02:25:49.822Z,12.13
2023-04-24T02:28:39.521Z,12.17
2023-04-24T02:31:29.393Z,12.19
2023-04-24T02:34:17.873Z,12.17
2023-04-24T02:37:06.278Z,12.09
2023-04-24T02:39:55.153Z,12.07
2023-04-24T02:42:43.566Z,12.07
2023-04-24T02:45:32.010Z,11.94
2023-04-24T02:48:22.013Z,11.88
2023-04-24T02:51:10.888Z,11.90
2023-04-24T02:53:59.291Z,11.88
2023-04-24T02:56:47.690Z,11.81
2023-04-24T02:59:36.248Z,11.62
2023-04-24T03:02:24.799Z,11.41
2023-04-24T03:05:14.847Z,11.38
2023-04-24T03:08:03.228Z,11.26
2023-04-24T03:10:51.587Z,11.30
2023-04-24T03:13:39.944Z,11.26
2023-04-24T03:16:28.367Z,11.27
2023-04-24T03:19:17.280Z,11.04
2023-04-24T03:22:20.887Z,11.11
2023-04-24T03:25:10.487Z,10.98
2023-04-24T03:27:59.657Z,11.04
2023-04-24T03:31:00.991Z,11.11
2023-04-24T03:33:53.988Z,11.02
2023-04-24T03:36:42.394Z,10.85
2023-04-24T03:39:32.393Z,10.86
2023-04-24T03:42:20.992Z,10.80
2023-04-24T03:45:16.109Z,10.76
2023-04-24T03:48:09.684Z,10.75
2023-04-24T03:50:58.829Z,10.75
2023-04-24T03:53:47.251Z,10.69
2023-04-24T03:56:41.062Z,10.61
2023-04-24T03:59:29.951Z,10.70
2023-04-24T04:02:40.087Z,10.68
2023-04-24T04:05:28.570Z,10.70
2023-04-24T04:08:16.968Z,10.73
2023-04-24T04:11:05.599Z,10.55
2023-04-24T04:13:55.759Z,10.60
2023-04-24T04:16:44.566Z,10.74
2023-04-24T04:19:33.465Z,10.76
2023-04-24T04:22:21.858Z,10.78
2023-04-24T04:25:14.323Z,10.71
2023-04-24T04:28:03.050Z,10.74
2023-04-24T04:30:54.790Z,10.75
2023-04-24T04:33:43.569Z,10.74
2023-04-24T04:36:32.309Z,10.87
2023-04-24T04:39:29.403Z,10.97
2023-04-24T04:42:41.463Z,11.00
2023-04-24T04:45:30.122Z,10.94
2023-04-24T04:48:42.132Z,10.97
2023-04-24T04:51:32.090Z,10.93
2023-04-24T04:54:20.558Z,10.99
2023-04-24T04:57:09.072Z,11.02
2023-04-24T04:59:58.179Z,11.02
2023-04-24T05:03:09.071Z,10.99
2023-04-24T05:06:09.686Z,10.95
2023-04-24T05:09:00.471Z,11.03
2023-04-24T05:12:14.655Z,11.03
2023-04-24T05:15:11.441Z,11.07
2023-04-24T05:17:59.890Z,10.87
2023-04-24T05:20:48.954Z,10.91
2023-04-24T05:23:38.870Z,10.96
2023-04-24T05:26:27.642Z,10.91
2023-04-24T05:29:20.159Z,10.95
2023-04-24T05:32:08.815Z,10.97
2023-04-24T05:34:57.427Z,11.10
2023-04-24T05:37:46.010Z,11.11
2023-04-24T05:40:36.466Z,11.11
2023-04-24T05:43:24.837Z,11.13
2023-04-24T05:46:13.986Z,11.17
2023-04-24T05:49:03.028Z,11.11
2023-04-24T05:51:53.483Z,11.11
2023-04-24T05:54:41.889Z,11.20
2023-04-24T05:57:33.732Z,11.09
2023-04-24T06:00:26.018Z,11.15
2023-04-24T06:03:21.985Z,11.20
2023-04-24T06:06:10.746Z,11.05
2023-04-24T06:08:59.875Z,11.13
2023-04-24T06:11:49.626Z,11.18
2023-04-24T06:14:39.422Z,11.08
2023-04-24T06:17:40.877Z,11.10
2023-04-24T06:20:29.497Z,11.15
2023-04-24T06:23:17.838Z,11.15
2023-04-24T06:26:06.583Z,11.14
2023-04-24T06:28:55.881Z,11.04
2023-04-24T06:31:45.712Z,10.92
2023-04-24T06:34:35.186Z,10.97
2023-04-24T06:37:23.891Z,10.91
2023-04-24T06:40:12.595Z,10.94
2023-04-24T06:43:01.148Z,11.13
2023-04-24T06:45:49.594Z,11.10
2023-04-24T06:48:39.404Z,11.03
2023-04-24T06:51:28.609Z,11.14
2023-04-24T06:54:17.030Z,11.18
2023-04-24T06:57:05.465Z,11.25
2023-04-24T06:59:53.900Z,11.32
2023-04-24T07:02:42.544Z,11.34
2023-04-24T07:05:32.333Z,11.27
2023-04-24T07:08:21.662Z,11.29
2023-04-24T07:11:10.051Z,11.31
2023-04-24T07:13:58.449Z,11.23
2023-04-24T07:16:47.360Z,11.18
2023-04-24T07:19:37.399Z,11.15
2023-04-24T07:22:27.491Z,11.20
2023-04-24T07:25:15.931Z,11.09
2023-04-24T07:28:05.570Z,11.25
2023-04-24T07:30:55.186Z,11.19
2023-04-24T07:33:43.611Z,11.14
2023-04-24T07:36:33.356Z,11.28
2023-04-24T07:39:23.126Z,11.34
2023-04-24T07:42:12.444Z,11.32
2023-04-24T07:45:01.204Z,11.38
2023-04-24T07:47:49.699Z,11.39
2023-04-24T07:50:38.261Z,11.35
2023-04-24T07:53:26.750Z,11.24
2023-04-24T07:56:16.489Z,11.32
2023-04-24T07:59:04.934Z,11.47
2023-04-24T08:01:53.329Z,11.53
2023-04-24T08:04:41.924Z,11.66
2023-04-24T08:07:30.518Z,11.74
2023-04-24T08:10:18.946Z,11.89
2023-04-24T08:13:08.762Z,11.99
2023-04-24T08:15:58.564Z,11.98
2023-04-24T08:18:46.975Z,11.99
2023-04-24T08:21:35.449Z,12.01
2023-04-24T08:24:24.173Z,11.93
2023-04-24T08:27:12.660Z,12.00
2023-04-24T08:30:02.487Z,11.88
2023-04-24T08:32:51.165Z,11.63
2023-04-24T08:35:39.909Z,11.58
2023-04-24T08:38:28.363Z,11.52
2023-04-24T08:41:17.788Z,11.59
2023-04-24T08:44:07.962Z,11.64
2023-04-24T08:46:59.400Z,11.58
2023-04-24T08:49:50.359Z,11.26
2023-04-24T08:52:38.842Z,11.00
2023-04-24T08:55:27.807Z,10.87
2023-04-24T08:58:16.637Z,10.89
2023-04-24T09:01:05.410Z,10.93
2023-04-24T09:03:55.931Z,10.96
2023-04-24T09:06:44.617Z,10.92
2023-04-24T09:09:33.429Z,10.95
2023-04-24T09:12:22.303Z,10.87
2023-04-24T09:15:11.439Z,11.10
2023-04-24T09:18:00.060Z,11.07
2023-04-24T09:21:03.176Z,11.20
2023-04-24T09:24:00.329Z,11.38
2023-04-24T09:26:48.902Z,11.42
2023-04-24T09:29:37.452Z,11.32
2023-04-24T09:32:27.223Z,11.40
2023-04-24T09:35:17.120Z,11.52
2023-04-24T09:38:06.854Z,11.48
2023-04-24T09:40:55.231Z,11.51
2023-04-24T09:43:43.575Z,11.50
2023-04-24T09:46:33.391Z,11.46
2023-04-24T09:49:24.734Z,11.69
2023-04-24T09:52:13.755Z,11.84
2023-04-24T09:55:03.873Z,11.86
2023-04-24T09:57:53.895Z,11.93
2023-04-24T10:00:42.397Z,12.18
2023-04-24T10:03:32.380Z,12.25
2023-04-24T10:06:21.149Z,12.25
2023-04-24T10:09:12.018Z,12.19
2023-04-24T10:12:03.137Z,12.21
2023-04-24T10:14:52.756Z,12.47
2023-04-24T10:17:42.413Z,12.64
2023-04-24T10:20:31.854Z,12.60
2023-04-24T10:23:21.253Z,12.61
2023-04-24T10:26:11.277Z,12.49
2023-04-24T10:29:01.581Z,12.56
2023-04-24T10:31:50.146Z,12.64
2023-04-24T10:34:38.578Z,12.85
2023-04-24T10:37:28.140Z,12.97
2023-04-24T10:40:20.144Z,13.01
2023-04-24T10:43:12.076Z,12.93
2023-04-24T10:46:06.065Z,13.16
2023-04-24T10:48:56.269Z,13.06
2023-04-24T10:51:49.902Z,13.06
2023-04-24T10:54:39.227Z,13.05
2023-04-24T10:57:30.330Z,13.22
2023-04-24T11:00:21.709Z,13.31
2023-04-24T11:03:26.611Z,13.34
2023-04-24T11:06:15.187Z,13.27
2023-04-24T11:09:07.626Z,13.29
2023-04-24T11:12:06.748Z,13.36
2023-04-24T11:15:03.508Z,13.21
2023-04-24T11:17:58.008Z,13.11
2023-04-24T11:20:48.930Z,13.13
2023-04-24T11:23:38.267Z,13.27
2023-04-24T11:26:33.189Z,12.92
2023-04-24T11:29:22.915Z,12.91
2023-04-24T11:32:26.043Z,12.12
2023-04-24T11:35:17.348Z,11.85
2023-04-24T11:38:23.499Z,11.78
2023-04-24T11:41:13.742Z,11.67
2023-04-24T11:44:02.403Z,11.57
2023-04-24T11:46:50.826Z,11.79
2023-04-24T11:49:39.218Z,11.77
2023-04-24T11:52:27.970Z,11.82
2023-04-24T11:55:28.688Z,11.67
2023-04-24T11:58:17.257Z,11.89
2023-04-24T12:01:06.367Z,11.95
2023-04-24T12:04:02.126Z,12.03
2023-04-24T12:07:03.039Z,12.30
2023-04-24T12:09:57.404Z,12.33
2023-04-24T12:12:48.058Z,12.27
2023-04-24T12:15:36.498Z,12.39
2023-04-24T12:18:25.152Z,12.47
2023-04-24T12:21:22.706Z,12.55
2023-04-24T12:24:11.624Z,12.67
2023-04-24T12:27:02.498Z,12.78
2023-04-24T12:29:56.507Z,12.77
2023-04-24T12:32:45.756Z,12.74
2023-04-24T12:35:36.779Z,12.94
2023-04-24T12:38:26.586Z,13.16
2023-04-24T12:41:15.878Z,13.43
2023-04-24T12:44:04.255Z,13.58
2023-04-24T12:46:54.130Z,13.44
2023-04-24T12:49:42.544Z,13.40
2023-04-24T12:52:32.152Z,13.57
2023-04-24T12:55:20.560Z,13.75
2023-04-24T12:58:09.057Z,13.60
2023-04-24T13:00:57.453Z,13.85
2023-04-24T13:03:47.508Z,13.77
2023-04-24T13:06:36.160Z,13.87
2023-04-24T13:09:24.808Z,14.03
2023-04-24T13:12:13.967Z,14.25
2023-04-24T13:15:02.400Z,14.26
2023-04-24T13:17:52.823Z,14.28
2023-04-24T13:20:43.143Z,14.04
2023-04-24T13:23:31.552Z,13.74
2023-04-24T13:26:20.001Z,13.68
2023-04-24T13:29:08.711Z,13.66
2023-04-24T13:31:57.623Z,13.82
2023-04-24T13:34:46.020Z,14.08
2023-04-24T13:37:35.805Z,14.28
2023-04-24T13:40:24.256Z,14.25
2023-04-24T13:43:12.664Z,14.22
2023-04-24T13:46:03.888Z,14.30
2023-04-24T13:48:52.362Z,14.51
2023-04-24T13:51:41.050Z,14.75
2023-04-24T13:54:30.822Z,14.88
2023-04-24T13:57:19.246Z,15.01
2023-04-24T14:00:11.570Z,15.07
2023-04-24T14:03:00.548Z,14.99
2023-04-24T14:05:49.004Z,14.77
2023-04-24T14:08:37.412Z,14.73
2023-04-24T14:11:28.686Z,14.83
2023-04-24T14:14:17.168Z,14.79
2023-04-24T14:17:05.804Z,14.64
2023-04-24T14:19:57.240Z,14.68
2023-04-24T14:22:45.816Z,14.76
2023-04-24T14:25:34.221Z,14.68
2023-04-24T14:28:24.128Z,14.45
2023-04-24T14:31:12.667Z,14.51
2023-04-24T14:34:01.257Z,14.40
2023-04-24T14:36:49.862Z,14.52
2023-04-24T14:39:38.316Z,14.55
2023-04-24T14:42:26.960Z,14.69
2023-04-24T14:45:16.893Z,15.14
2023-04-24T14:48:05.676Z,15.31
2023-04-24T14:50:54.043Z,15.25
2023-04-24T14:53:42.453Z,15.04
2023-04-24T14:56:31.199Z,14.88
2023-04-24T14:59:19.591Z,14.81
2023-04-24T15:05:04.332Z,14.41
2023-04-24T15:07:52.904Z,14.32
2023-04-24T15:10:41.281Z,14.21
2023-04-24T15:13:29.722Z,14.19
2023-04-24T15:16:18.603Z,14.27
2023-04-24T15:19:08.506Z,14.07
2023-04-24T15:21:56.846Z,14.13
2023-04-24T15:24:45.250Z,14.00
2023-04-24T15:27:42.523Z,13.93
2023-04-24T15:30:31.503Z,14.04
2023-04-24T15:33:19.942Z,14.28
2023-04-24T15:36:10.202Z,14.31
2023-04-24T15:38:58.566Z,14.25
2023-04-24T15:41:46.999Z,14.18
2023-04-24T15:44:35.385Z,14.03
2023-04-24T15:47:23.843Z,14.01
2023-04-24T15:50:14.453Z,14.09
2023-04-24T15:53:04.528Z,14.20
2023-04-24T15:55:53.994Z,14.22
2023-04-24T15:58:42.362Z,14.39
2023-04-24T16:01:31.428Z,14.57
2023-04-24T16:04:19.990Z,14.47
2023-04-24T16:07:08.765Z,14.47
2023-04-24T16:09:58.457Z,14.26
2023-04-24T16:12:46.848Z,14.06
2023-04-24T16:15:36.333Z,14.07
2023-04-24T16:18:24.835Z,13.69
2023-04-24T16:21:13.250Z,13.64
2023-04-24T16:24:01.634Z,13.69
2023-04-24T16:26:51.649Z,13.63
2023-04-24T16:29:40.136Z,13.61
2023-04-24T16:32:28.609Z,13.63
2023-04-24T16:35:17.176Z,13.56
2023-04-24T16:38:05.612Z,13.46
2023-04-24T16:40:53.988Z,13.55
2023-04-24T16:43:43.723Z,13.32
2023-04-24T16:46:32.108Z,13.10
2023-04-24T16:49:20.631Z,13.04
2023-04-24T16:52:09.174Z,13.08
2023-04-24T16:54:57.600Z,13.02
2023-04-24T16:57:45.995Z,12.91
2023-04-24T17:00:36.825Z,12.76
2023-04-24T17:03:25.557Z,12.63
2023-04-24T17:06:14.172Z,12.68
2023-04-24T17:09:02.579Z,12.66
2023-04-24T17:11:51.064Z,12.74
2023-04-24T17:14:39.481Z,12.70
2023-04-24T17:17:29.442Z,12.41
2023-04-24T17:20:22.873Z,12.39
2023-04-24T17:23:13.711Z,12.22
2023-04-24T17:26:02.217Z,12.24
2023-04-24T17:28:50.928Z,12.19
2023-04-24T17:31:39.584Z,12.42
2023-04-24T17:34:29.338Z,12.47
2023-04-24T17:37:19.808Z,12.49
2023-04-24T17:40:10.622Z,12.36
2023-04-24T17:42:59.013Z,12.22
2023-04-24T17:45:47.524Z,12.37
2023-04-24T17:48:36.825Z,12.24
2023-04-24T17:51:27.751Z,12.11
2023-04-24T17:54:18.150Z,12.11
2023-04-24T17:57:06.809Z,11.83
2023-04-24T17:59:55.300Z,11.99
2023-04-24T18:02:43.816Z,11.92
2023-04-24T18:05:33.058Z,11.73
2023-04-24T18:08:22.801Z,11.70
2023-04-24T18:11:11.260Z,11.66
2023-04-24T18:13:59.846Z,11.69
2023-04-24T18:16:48.179Z,11.78
2023-04-24T18:19:36.774Z,11.68
2023-04-24T18:22:25.169Z,11.78
2023-04-24T18:25:15.613Z,11.85
2023-04-24T18:28:04.030Z,11.69
2023-04-24T18:30:52.448Z,11.39
2023-04-24T18:33:40.912Z,11.39
2023-04-24T18:36:29.234Z,11.51
2023-04-24T18:39:17.612Z,11.65
2023-04-24T18:42:07.400Z,11.65
2023-04-24T18:45:01.197Z,11.53
2023-04-24T18:47:50.151Z,11.45
2023-04-24T18:50:40.649Z,11.49
2023-04-24T18:53:29.050Z,11.41
2023-04-24T18:56:17.512Z,11.29
2023-04-24T18:59:07.316Z,11.31
2023-04-24T19:01:55.742Z,11.31
2023-04-24T19:04:44.217Z,11.33
2023-04-24T19:07:32.742Z,11.34
2023-04-24T19:10:21.167Z,11.09
2023-04-24T19:13:09.545Z,11.10
2023-04-24T19:15:59.328Z,11.16
2023-04-24T19:18:47.918Z,11.15
2023-04-24T19:21:36.592Z,11.13
2023-04-24T19:24:26.059Z,10.94
2023-04-24T19:27:14.446Z,10.90
2023-04-24T19:30:02.871Z,10.98
2023-04-24T19:32:52.796Z,10.88
2023-04-24T19:35:41.225Z,10.93
2023-04-24T19:38:29.683Z,10.95
2023-04-24T19:41:18.070Z,10.91
2023-04-24T19:44:06.505Z,10.92
2023-04-24T19:46:54.891Z,10.88
2023-04-24T19:49:44.602Z,10.81
2023-04-24T19:52:32.967Z,10.70
2023-04-24T19:55:21.378Z,10.56
2023-04-24T19:58:09.802Z,10.56
2023-04-24T20:00:58.578Z,10.59
2023-04-24T20:03:47.093Z,10.58
2023-04-24T20:06:36.976Z,10.57
2023-04-24T20:09:25.371Z,10.49
2023-04-24T20:12:13.876Z,10.49
2023-04-24T20:15:02.395Z,10.46
2023-04-24T20:17:50.816Z,10.39
2023-04-24T20:20:41.646Z,10.33
2023-04-24T20:23:31.461Z,10.31
2023-04-24T20:26:19.840Z,10.24
2023-04-24T20:29:08.820Z,10.09
2023-04-24T20:31:57.546Z,10.10
2023-04-24T20:34:46.070Z,10.05
2023-04-24T20:37:35.107Z,9.93
2023-04-24T20:40:24.880Z,9.88
2023-04-24T20:43:13.239Z,9.81
2023-04-24T20:46:01.955Z,9.76
2023-04-24T20:48:50.810Z,9.70
2023-04-24T20:51:39.332Z,9.73
2023-04-24T20:54:27.922Z,9.76
2023-04-24T20:57:17.660Z,9.66
2023-04-24T21:00:08.776Z,9.66
2023-04-24T21:02:57.242Z,9.61
2023-04-24T21:05:45.872Z,9.54
2023-04-24T21:08:34.545Z,9.55
2023-04-24T21:11:22.976Z,9.37
2023-04-24T21:14:12.835Z,9.49
2023-04-24T21:17:01.857Z,9.42
2023-04-24T21:19:50.267Z,9.42
2023-04-24T21:22:38.630Z,9.31
2023-04-24T21:25:27.149Z,9.05
2023-04-24T21:28:16.077Z,9.14
2023-04-24T21:31:05.810Z,9.21
2023-04-24T21:33:54.202Z,9.11
2023-04-24T21:36:42.589Z,9.07
2023-04-24T21:39:30.972Z,9.01
2023-04-24T21:42:19.441Z,8.95
2023-04-24T21:45:08.910Z,8.97
2023-04-24T21:47:59.745Z,8.99
2023-04-24T21:50:48.501Z,8.96
2023-04-24T21:53:36.858Z,8.89
2023-04-24T21:56:25.392Z,8.87
2023-04-24T21:59:14.242Z,8.81
2023-04-24T22:02:02.698Z,8.88
2023-04-24T22:04:53.039Z,8.96
2023-04-24T22:07:41.526Z,8.91
2023-04-24T22:10:29.982Z,8.88
2023-04-24T22:13:18.382Z,8.89
2023-04-24T22:16:07.428Z,8.90
2023-04-24T22:18:56.099Z,8.80
2023-04-24T22:21:45.869Z,8.79
2023-04-24T22:24:34.274Z,8.78
2023-04-24T22:27:22.678Z,8.83
2023-04-24T22:30:11.900Z,8.80
2023-04-24T22:33:00.434Z,8.87
2023-04-24T22:35:48.883Z,8.91
2023-04-24T22:38:38.690Z,8.86
2023-04-24T22:41:27.165Z,8.81
2023-04-24T22:44:15.569Z,8.76
2023-04-24T22:47:07.063Z,8.72
2023-04-24T22:49:57.524Z,8.69
2023-04-24T22:52:45.993Z,8.46
2023-04-24T22:55:36.666Z,8.58
2023-04-24T22:58:25.492Z,8.62
2023-04-24T23:01:13.926Z,8.69
2023-04-24T23:04:02.624Z,8.72
2023-04-24T23:06:51.076Z,8.63
2023-04-24T23:09:39.437Z,8.58
2023-04-24T23:12:29.755Z,8.60
2023-04-24T23:15:18.267Z,8.59
2023-04-24T23:18:06.858Z,8.53
2023-04-24T23:20:55.321Z,8.48
2023-04-24T23:23:43.816Z,8.51
2023-04-24T23:26:32.683Z,8.51
2023-04-24T23:29:23.215Z,8.50
2023-04-24T23:32:11.694Z,8.51
2023-04-24T23:35:00.212Z,8.54
2023-04-24T23:37:48.643Z,8.46
2023-04-24T23:40:37.120Z,8.42
2023-04-24T23:43:26.556Z,8.43
2023-04-24T23:46:16.362Z,8.38
2023-04-24T23:49:05.171Z,8.38
2023-04-24T23:51:53.644Z,8.22
2023-04-24T23:54:42.003Z,8.30
2023-04-24T23:57:30.616Z,8.34
